»·PEaware :: WAT425 KRDD-KSAC

WAT425 :: KRDD-KSAC

FLIGHT INFORMATION

Flight Status: Arrived
Operator:
Walker Air Transport
More flights by this operator :: More flights under this callsign
Pilot: Adam H. (32152)
Aircraft: CIRRUS SR-22 TURBO
(S22T)
More flights by this aircraft type
Origin: KRDD Redding Mun
United States
Destination: KSAC Sacramento Executive
United States
More flights between these airports :: More routes between these airports
Route:
File this flight plan on PilotEdge
Remarks:
Altitude:
(Current/Filed)
10,500ft
Speed:
(Current/Filed)
150kts
Departed: 10-Dec-20 05:52 PM
Arrived: 10-Dec-20 07:02 PM
Distance/Time
Traveled:
125nm/1:10
Distance/Time
To Go:
Arrived

Flight Plot

Page will automatically refresh every two minutes.

Flight plan parsing failed; only flown route is shown


Map Options




Map Legend


Flown Route
Filed Route
Departure Airport
Arrival Airport
Navaid (VOR, NDB)
Fix

Horizontal Profiles

Position Reports

Time Latitude Longitude Heading Altitude Ground
Speed
10-Dec-20 17:46 40.510961 -122.299212 85 501ft 4kts
10-Dec-20 17:47 40.511532 -122.297642 49 498ft 4kts
10-Dec-20 17:48 40.513721 -122.296384 359 502ft 13kts
10-Dec-20 17:49 40.518922 -122.296290 357 506ft 21kts
10-Dec-20 17:50 40.520253 -122.295830 81 507ft 0kts
10-Dec-20 17:51 40.517360 -122.294821 183 504ft 64kts
10-Dec-20 17:52 40.493772 -122.286417 53 1225ft 106kts
10-Dec-20 17:53 40.523835 -122.281886 359 1956ft 113kts
10-Dec-20 17:54 40.558067 -122.286859 349 2655ft 140kts
10-Dec-20 17:55 40.593501 -122.294829 350 3817ft 126kts
10-Dec-20 17:56 40.629996 -122.299030 354 4802ft 144kts
10-Dec-20 17:57 40.669748 -122.305398 343 5791ft 147kts
10-Dec-20 17:58 40.706525 -122.331583 307 6439ft 151kts
10-Dec-20 17:59 40.717123 -122.381802 262 7152ft 161kts
10-Dec-20 18:00 40.712314 -122.439045 283 7442ft 167kts
10-Dec-20 18:01 40.715673 -122.501957 253 5873ft 181kts
10-Dec-20 18:02 40.697676 -122.556603 255 4182ft 137kts
10-Dec-20 18:03 40.685749 -122.601232 250 3896ft 135kts
10-Dec-20 18:04 40.668006 -122.650484 245 4565ft 149kts
10-Dec-20 18:05 40.648616 -122.696105 237 5651ft 144kts
10-Dec-20 18:06 40.614251 -122.726108 220 6564ft 158kts
10-Dec-20 18:07 40.582507 -122.765332 229 7470ft 151kts
10-Dec-20 18:08 40.546823 -122.807292 221 7276ft 187kts
10-Dec-20 18:09 40.501828 -122.840839 211 7373ft 187kts
10-Dec-20 18:10 40.452860 -122.860175 191 7737ft 182kts
10-Dec-20 18:11 40.401526 -122.862340 189 8133ft 184kts
10-Dec-20 18:12 40.351010 -122.858343 171 8837ft 181kts
10-Dec-20 18:13 40.300536 -122.846793 178 9333ft 186kts
10-Dec-20 18:14 40.246871 -122.838652 183 9485ft 200kts
10-Dec-20 18:15 40.192273 -122.850995 196 9346ft 199kts
10-Dec-20 18:16 40.137499 -122.856049 178 9389ft 203kts
10-Dec-20 18:17 40.081730 -122.847804 179 9392ft 202kts
10-Dec-20 18:18 40.025927 -122.839501 178 9405ft 202kts
10-Dec-20 18:19 39.969854 -122.831043 178 9396ft 201kts
10-Dec-20 18:20 39.913789 -122.822448 178 9397ft 206kts
10-Dec-20 18:21 39.857145 -122.813949 178 9389ft 209kts
10-Dec-20 18:22 39.799572 -122.805224 179 9398ft 208kts
10-Dec-20 18:23 39.741686 -122.796415 178 9385ft 209kts
10-Dec-20 18:24 39.683594 -122.787622 178 9393ft 210kts
10-Dec-20 18:25 39.625726 -122.778881 179 9408ft 209kts
10-Dec-20 18:26 39.567931 -122.770311 179 9422ft 209kts
10-Dec-20 18:27 39.509649 -122.762166 187 9461ft 206kts
10-Dec-20 18:28 39.457086 -122.791331 211 8559ft 214kts
10-Dec-20 18:29 39.402974 -122.825443 211 7721ft 212kts
10-Dec-20 18:30 39.350182 -122.854432 199 7543ft 191kts
10-Dec-20 18:31 39.300346 -122.866083 194 8083ft 188kts
10-Dec-20 18:32 39.248133 -122.857545 159 8419ft 200kts
10-Dec-20 18:33 39.207092 -122.811984 120 8416ft 213kts
10-Dec-20 18:34 39.173363 -122.748894 133 8424ft 215kts
10-Dec-20 18:35 39.133638 -122.691079 133 8423ft 215kts
10-Dec-20 18:36 39.094489 -122.633272 133 8407ft 215kts
10-Dec-20 18:37 39.054417 -122.576154 132 8420ft 216kts
10-Dec-20 18:38 39.014543 -122.518193 133 8418ft 215kts
10-Dec-20 18:39 38.974188 -122.461042 133 8434ft 216kts
10-Dec-20 18:40 38.934071 -122.402965 132 8077ft 221kts
10-Dec-20 18:41 38.894978 -122.346765 133 6588ft 209kts
10-Dec-20 18:42 38.857232 -122.292240 133 5090ft 201kts
10-Dec-20 18:43 38.823033 -122.242697 133 4517ft 165kts
10-Dec-20 18:44 38.794766 -122.200892 133 4522ft 149kts
10-Dec-20 18:45 38.763366 -122.154576 133 4539ft 189kts
10-Dec-20 18:46 38.720139 -122.115511 150 4533ft 193kts
10-Dec-20 18:47 38.675180 -122.077362 149 4514ft 193kts
10-Dec-20 18:48 38.637433 -122.027418 126 4510ft 197kts
10-Dec-20 18:49 38.600789 -121.978404 149 4501ft 191kts
10-Dec-20 18:50 38.557066 -121.939578 147 4494ft 190kts
10-Dec-20 18:51 38.516297 -121.895957 140 4491ft 192kts
10-Dec-20 18:52 38.477778 -121.848951 138 4486ft 185kts
10-Dec-20 18:53 38.464583 -121.793867 95 3224ft 151kts
10-Dec-20 18:54 38.460865 -121.740182 97 2502ft 160kts
10-Dec-20 18:56 38.456799 -121.682907 85 2442ft 166kts
10-Dec-20 18:57 38.476711 -121.629013 54 2213ft 171kts
10-Dec-20 18:58 38.505244 -121.582089 54 2204ft 166kts
10-Dec-20 18:59 38.522379 -121.527475 91 1226ft 155kts
10-Dec-20 19:00 38.505965 -121.484901 129 639ft 120kts
10-Dec-20 19:01 38.507953 -121.480235 301 341ft 102kts
10-Dec-20 19:02 38.518063 -121.495230 217 24ft 0kts
10-Dec-20 19:03 38.517820 -121.495547 220 23ft 0kts
10-Dec-20 19:04 38.517820 -121.495547 220 23ft 0kts
10-Dec-20 19:05 38.517119 -121.496370 226 22ft 14kts

Navigation Log

Ident Type
Flight plan parsing failed, navigation log unavailable